createdAt,value
2022-10-10T00:00:05.157Z,5.80
2022-10-10T00:01:04.509Z,5.75
2022-10-10T00:02:04.525Z,5.75
2022-10-10T00:03:04.478Z,5.72
2022-10-10T00:04:04.608Z,5.73
2022-10-10T00:05:04.606Z,5.75
2022-10-10T00:06:04.485Z,5.73
2022-10-10T00:07:04.478Z,5.73
2022-10-10T00:08:04.456Z,5.75
2022-10-10T00:09:04.466Z,5.70
2022-10-10T00:10:04.445Z,5.73
2022-10-10T00:11:04.485Z,5.67
2022-10-10T00:12:04.503Z,5.70
2022-10-10T00:13:04.415Z,5.66
2022-10-10T00:14:04.426Z,5.72
2022-10-10T00:15:04.424Z,5.73
2022-10-10T00:16:04.408Z,5.77
2022-10-10T00:17:04.404Z,5.77
2022-10-10T00:18:04.413Z,5.77
2022-10-10T00:19:04.394Z,5.79
2022-10-10T00:20:04.375Z,5.79
2022-10-10T00:21:04.373Z,5.79
2022-10-10T00:22:04.362Z,5.82
2022-10-10T00:23:04.410Z,5.80
2022-10-10T00:24:04.370Z,5.82
2022-10-10T00:25:04.352Z,5.79
2022-10-10T00:26:08.575Z,5.76
2022-10-10T00:27:04.333Z,5.77
2022-10-10T00:28:04.381Z,5.75
2022-10-10T00:29:04.331Z,5.75
2022-10-10T00:30:04.323Z,5.72
2022-10-10T00:31:04.301Z,5.69
2022-10-10T00:32:04.309Z,5.67
2022-10-10T00:33:04.282Z,5.66
2022-10-10T00:34:04.319Z,5.59
2022-10-10T00:35:04.279Z,5.55
2022-10-10T00:36:04.300Z,5.57
2022-10-10T00:37:04.259Z,5.54
2022-10-10T00:38:04.269Z,5.54
2022-10-10T00:39:04.259Z,5.55
2022-10-10T00:40:04.247Z,5.55
2022-10-10T00:41:04.259Z,5.51
2022-10-10T00:42:04.237Z,5.52
2022-10-10T00:43:04.236Z,5.52
2022-10-10T00:44:04.237Z,5.52
2022-10-10T00:45:04.216Z,5.54
2022-10-10T00:46:04.212Z,5.54
2022-10-10T00:47:04.196Z,5.58
2022-10-10T00:48:04.188Z,5.57
2022-10-10T00:49:04.197Z,5.57
2022-10-10T00:50:04.226Z,5.57
2022-10-10T00:51:04.179Z,5.58
2022-10-10T00:52:04.167Z,5.62
2022-10-10T00:53:04.155Z,5.69
2022-10-10T00:54:04.169Z,5.67
2022-10-10T00:55:04.144Z,5.67
2022-10-10T00:56:04.143Z,5.72
2022-10-10T00:57:04.565Z,5.72
2022-10-10T00:58:04.125Z,5.76
2022-10-10T00:59:04.114Z,5.75
2022-10-10T01:00:04.155Z,5.80
2022-10-10T01:01:04.824Z,5.82
2022-10-10T01:02:04.164Z,5.79
2022-10-10T01:03:04.092Z,5.82
2022-10-10T01:04:04.911Z,5.79
2022-10-10T01:05:04.202Z,5.79
2022-10-10T01:06:04.963Z,5.75
2022-10-10T01:07:04.952Z,5.75
2022-10-10T01:08:04.991Z,5.70
2022-10-10T01:09:05.000Z,5.72
2022-10-10T01:10:04.921Z,5.73
2022-10-10T01:11:04.117Z,5.72
2022-10-10T01:12:04.441Z,5.69
2022-10-10T01:13:04.790Z,5.66
2022-10-10T01:14:05.059Z,5.66
2022-10-10T01:15:04.029Z,5.65
2022-10-10T01:16:04.859Z,5.61
2022-10-10T01:17:04.007Z,5.65
2022-10-10T01:18:04.627Z,5.59
2022-10-10T01:19:04.826Z,5.67
2022-10-10T01:20:04.986Z,5.72
2022-10-10T01:21:04.888Z,5.70
2022-10-10T01:22:04.637Z,5.67
2022-10-10T01:23:05.191Z,5.72
2022-10-10T01:24:04.857Z,5.67
2022-10-10T01:25:03.969Z,5.67
2022-10-10T01:26:03.997Z,5.73
2022-10-10T01:27:03.937Z,5.75
2022-10-10T01:28:04.106Z,5.77
2022-10-10T01:29:04.038Z,5.82
2022-10-10T01:30:04.107Z,5.77
2022-10-10T01:31:04.151Z,5.76
2022-10-10T01:32:04.205Z,5.84
2022-10-10T01:33:04.265Z,5.88
2022-10-10T01:34:03.897Z,5.87
2022-10-10T01:35:03.892Z,5.93
2022-10-10T01:36:03.905Z,5.95
2022-10-10T01:37:03.872Z,5.98
2022-10-10T01:38:03.881Z,6.02
2022-10-10T01:39:03.890Z,5.98
2022-10-10T01:40:03.894Z,6.03
2022-10-10T01:41:03.920Z,6.05
2022-10-10T01:42:03.902Z,6.06
2022-10-10T01:43:03.840Z,6.16
2022-10-10T01:44:03.921Z,6.18
2022-10-10T01:45:03.934Z,6.31
2022-10-10T01:46:03.842Z,6.34
2022-10-10T01:47:03.842Z,6.35
2022-10-10T01:48:03.822Z,6.34
2022-10-10T01:49:03.798Z,6.32
2022-10-10T01:50:03.870Z,6.35
2022-10-10T01:51:03.888Z,6.35
2022-10-10T01:52:03.898Z,6.38
2022-10-10T01:53:03.912Z,6.45
2022-10-10T01:54:03.919Z,6.52
2022-10-10T01:55:03.939Z,6.53
2022-10-10T01:56:03.952Z,6.52
2022-10-10T01:57:03.960Z,6.52
2022-10-10T01:58:03.730Z,6.60
2022-10-10T01:59:03.848Z,6.60
2022-10-10T02:00:03.731Z,6.60
2022-10-10T02:01:03.862Z,6.63
2022-10-10T02:02:03.707Z,6.61
2022-10-10T02:03:03.757Z,6.63
2022-10-10T02:04:03.808Z,6.60
2022-10-10T02:05:03.856Z,6.61
2022-10-10T02:06:03.910Z,6.61
2022-10-10T02:07:03.670Z,6.57
2022-10-10T02:08:03.717Z,6.60
2022-10-10T02:09:03.677Z,6.64
2022-10-10T02:10:04.109Z,6.65
2022-10-10T02:11:04.065Z,6.68
2022-10-10T02:12:03.650Z,6.82
2022-10-10T02:13:03.988Z,6.88
2022-10-10T02:14:04.184Z,6.91
2022-10-10T02:15:03.625Z,6.93
2022-10-10T02:16:03.624Z,6.99
2022-10-10T02:17:03.885Z,6.99
2022-10-10T02:18:04.193Z,7.00
2022-10-10T02:19:04.246Z,7.22
2022-10-10T02:20:03.583Z,7.44
2022-10-10T02:21:03.600Z,7.54
2022-10-10T02:22:03.572Z,7.66
2022-10-10T02:23:03.700Z,7.69
2022-10-10T02:24:03.753Z,7.73
2022-10-10T02:25:03.793Z,7.74
2022-10-10T02:26:03.841Z,7.73
2022-10-10T02:27:03.901Z,7.66
2022-10-10T02:28:04.117Z,7.61
2022-10-10T02:29:04.033Z,7.58
2022-10-10T02:30:03.529Z,7.52
2022-10-10T02:31:04.115Z,7.50
2022-10-10T02:32:04.162Z,7.52
2022-10-10T02:33:04.200Z,7.47
2022-10-10T02:34:04.251Z,7.54
2022-10-10T02:35:04.299Z,7.52
2022-10-10T02:36:04.259Z,7.44
2022-10-10T02:37:03.470Z,7.43
2022-10-10T02:38:03.490Z,7.47
2022-10-10T02:39:03.538Z,7.52
2022-10-10T02:40:03.584Z,7.55
2022-10-10T02:41:03.637Z,7.52
2022-10-10T02:42:03.698Z,7.50
2022-10-10T02:43:03.480Z,7.52
2022-10-10T02:44:03.437Z,7.54
2022-10-10T02:45:03.486Z,7.60
2022-10-10T02:46:03.837Z,7.62
2022-10-10T02:47:03.521Z,7.66
2022-10-10T02:48:03.527Z,7.68
2022-10-10T02:49:03.528Z,7.64
2022-10-10T02:50:03.535Z,7.64
2022-10-10T02:51:03.566Z,7.66
2022-10-10T02:52:03.386Z,7.62
2022-10-10T02:53:03.384Z,7.64
2022-10-10T02:54:03.395Z,7.64
2022-10-10T02:55:03.354Z,7.68
2022-10-10T02:56:03.422Z,7.73
2022-10-10T02:57:03.434Z,7.71
2022-10-10T02:58:03.444Z,7.69
2022-10-10T02:59:03.464Z,7.71
2022-10-10T03:00:03.333Z,7.71
2022-10-10T03:01:03.546Z,7.68
2022-10-10T03:02:03.505Z,7.68
2022-10-10T03:03:03.511Z,7.77
2022-10-10T03:04:03.292Z,7.84
2022-10-10T03:05:05.638Z,7.96
2022-10-10T03:06:03.554Z,7.99
2022-10-10T03:07:03.564Z,8.02
2022-10-10T03:08:05.859Z,8.02
2022-10-10T03:09:03.261Z,8.05
2022-10-10T03:10:03.333Z,8.14
2022-10-10T03:11:03.321Z,8.14
2022-10-10T03:12:03.282Z,8.13
2022-10-10T03:13:03.284Z,8.21
2022-10-10T03:14:03.252Z,8.24
2022-10-10T03:15:05.064Z,8.21
2022-10-10T03:16:03.280Z,8.21
2022-10-10T03:17:03.328Z,8.13
2022-10-10T03:18:03.303Z,8.10
2022-10-10T03:19:03.436Z,8.09
2022-10-10T03:20:03.179Z,8.10
2022-10-10T03:21:03.548Z,8.04
2022-10-10T03:22:03.249Z,8.14
2022-10-10T03:23:03.268Z,8.21
2022-10-10T03:24:03.149Z,8.24
2022-10-10T03:25:03.208Z,8.24
2022-10-10T03:26:03.278Z,8.29
2022-10-10T03:27:03.198Z,8.34
2022-10-10T03:28:03.173Z,8.38
2022-10-10T03:29:03.167Z,8.35
2022-10-10T03:30:03.299Z,8.50
2022-10-10T03:31:03.427Z,8.62
2022-10-10T03:32:05.287Z,8.65
2022-10-10T03:33:03.608Z,8.68
2022-10-10T03:34:03.155Z,8.75
2022-10-10T03:35:03.827Z,8.88
2022-10-10T03:36:03.495Z,9.06
2022-10-10T03:37:03.895Z,9.18
2022-10-10T03:38:03.294Z,9.24
2022-10-10T03:39:03.226Z,9.30
2022-10-10T03:40:03.057Z,9.30
2022-10-10T03:41:03.343Z,9.41
2022-10-10T03:42:03.485Z,9.48
2022-10-10T03:43:03.774Z,9.54
2022-10-10T03:44:03.443Z,9.55
2022-10-10T03:45:03.025Z,9.59
2022-10-10T03:46:04.033Z,9.66
2022-10-10T03:47:03.083Z,9.65
2022-10-10T03:48:03.082Z,9.50
2022-10-10T03:49:03.024Z,9.36
2022-10-10T03:50:03.074Z,9.45
2022-10-10T03:51:03.102Z,9.42
2022-10-10T03:52:03.124Z,9.34
2022-10-10T03:53:03.065Z,9.19
2022-10-10T03:54:03.250Z,9.04
2022-10-10T03:55:02.961Z,8.89
2022-10-10T03:56:03.350Z,8.80
2022-10-10T03:57:03.397Z,8.85
2022-10-10T03:58:02.948Z,8.85
2022-10-10T03:59:03.500Z,8.80
2022-10-10T04:00:02.979Z,8.74
2022-10-10T04:01:03.120Z,8.72
2022-10-10T04:02:03.409Z,8.68
2022-10-10T04:03:03.688Z,8.74
2022-10-10T04:04:03.731Z,8.80
2022-10-10T04:05:03.581Z,8.88
2022-10-10T04:06:02.877Z,8.98
2022-10-10T04:07:02.869Z,9.19
2022-10-10T04:08:02.890Z,9.29
2022-10-10T04:09:02.948Z,9.27
2022-10-10T04:10:03.012Z,9.27
2022-10-10T04:11:03.044Z,9.24
2022-10-10T04:12:03.087Z,9.16
2022-10-10T04:13:03.127Z,9.15
2022-10-10T04:14:02.817Z,9.24
2022-10-10T04:15:02.807Z,9.32
2022-10-10T04:16:02.867Z,9.36
2022-10-10T04:17:03.461Z,9.37
2022-10-10T04:18:03.054Z,9.44
2022-10-10T04:19:02.786Z,9.40
2022-10-10T04:20:02.813Z,9.36
2022-10-10T04:21:02.894Z,9.34
2022-10-10T04:22:02.834Z,9.55
2022-10-10T04:23:02.775Z,9.62
2022-10-10T04:24:02.765Z,9.63
2022-10-10T04:25:02.766Z,9.60
2022-10-10T04:26:02.735Z,9.55
2022-10-10T04:27:02.726Z,9.59
2022-10-10T04:28:02.744Z,9.60
2022-10-10T04:29:02.742Z,9.57
2022-10-10T04:30:02.763Z,9.52
2022-10-10T04:31:02.754Z,9.57
2022-10-10T04:32:02.763Z,9.59
2022-10-10T04:33:02.705Z,9.66
2022-10-10T04:34:02.694Z,9.70
2022-10-10T04:35:02.700Z,9.81
2022-10-10T04:36:02.713Z,9.81
2022-10-10T04:37:02.723Z,9.91
2022-10-10T04:38:02.832Z,9.88
2022-10-10T04:39:02.752Z,9.73
2022-10-10T04:40:02.770Z,9.78
2022-10-10T04:41:02.641Z,9.83
2022-10-10T04:42:02.801Z,9.93
2022-10-10T04:43:02.811Z,10.05
2022-10-10T04:44:02.636Z,10.02
2022-10-10T04:45:02.839Z,10.02
2022-10-10T04:46:02.858Z,10.02
2022-10-10T04:47:02.862Z,9.94
2022-10-10T04:48:02.893Z,10.02
2022-10-10T04:49:02.883Z,10.01
2022-10-10T04:50:02.890Z,10.01
2022-10-10T04:51:02.899Z,10.02
2022-10-10T04:52:02.765Z,10.02
2022-10-10T04:53:02.820Z,10.09
2022-10-10T04:54:02.957Z,10.24
2022-10-10T04:55:02.958Z,10.31
2022-10-10T04:56:02.976Z,10.36
2022-10-10T04:57:02.528Z,10.38
2022-10-10T04:58:02.548Z,10.39
2022-10-10T04:59:02.540Z,10.35
2022-10-10T05:00:02.567Z,10.35
2022-10-10T05:01:02.552Z,10.27
2022-10-10T05:02:02.536Z,10.08
2022-10-10T05:03:02.569Z,9.93
2022-10-10T05:04:02.597Z,9.90
2022-10-10T05:05:02.466Z,9.85
2022-10-10T05:06:02.476Z,9.91
2022-10-10T05:07:02.596Z,9.90
2022-10-10T05:08:02.478Z,9.98
2022-10-10T05:09:02.526Z,10.06
2022-10-10T05:10:02.676Z,10.08
2022-10-10T05:11:02.627Z,10.08
2022-10-10T05:12:02.947Z,10.05
2022-10-10T05:13:03.016Z,10.01
2022-10-10T05:14:02.415Z,9.96
2022-10-10T05:15:02.435Z,9.90
2022-10-10T05:16:02.417Z,9.88
2022-10-10T05:17:03.185Z,9.90
2022-10-10T05:18:02.953Z,10.01
2022-10-10T05:19:02.400Z,10.14
2022-10-10T05:20:02.855Z,10.17
2022-10-10T05:21:03.986Z,10.14
2022-10-10T05:22:03.264Z,10.16
2022-10-10T05:23:02.569Z,10.16
2022-10-10T05:24:02.464Z,10.16
2022-10-10T05:25:02.637Z,10.16
2022-10-10T05:26:03.370Z,10.16
2022-10-10T05:27:03.153Z,10.10
2022-10-10T05:28:02.844Z,10.08
2022-10-10T05:29:02.353Z,10.06
2022-10-10T05:30:03.252Z,10.02
2022-10-10T05:31:03.163Z,9.98
2022-10-10T05:32:05.378Z,9.96
2022-10-10T05:33:02.520Z,9.96
2022-10-10T05:34:02.351Z,10.02
2022-10-10T05:35:02.363Z,10.02
2022-10-10T05:36:02.362Z,9.93
2022-10-10T05:37:02.431Z,10.01
2022-10-10T05:38:02.382Z,9.98
2022-10-10T05:39:02.254Z,9.90
2022-10-10T05:40:02.429Z,9.87
2022-10-10T05:41:02.491Z,9.83
2022-10-10T05:42:02.519Z,9.81
2022-10-10T05:43:02.554Z,9.78
2022-10-10T05:44:02.267Z,9.77
2022-10-10T05:45:02.251Z,9.83
2022-10-10T05:46:02.338Z,9.91
2022-10-10T05:47:02.726Z,9.91
2022-10-10T05:48:02.851Z,9.96
2022-10-10T05:49:02.909Z,9.96
2022-10-10T05:50:02.180Z,9.98
2022-10-10T05:51:02.997Z,9.90
2022-10-10T05:52:02.319Z,9.90
2022-10-10T05:53:02.679Z,9.88
2022-10-10T05:54:02.958Z,9.94
2022-10-10T05:55:02.289Z,10.02
2022-10-10T05:56:02.148Z,10.06
2022-10-10T05:57:02.150Z,10.08
2022-10-10T05:58:02.116Z,10.12
2022-10-10T05:59:02.129Z,10.10
2022-10-10T06:00:02.145Z,10.17
2022-10-10T06:01:02.155Z,10.23
2022-10-10T06:02:02.164Z,10.28
2022-10-10T06:03:02.184Z,10.31
2022-10-10T06:04:02.185Z,10.36
2022-10-10T06:05:02.205Z,10.39
2022-10-10T06:06:02.234Z,10.43
2022-10-10T06:07:02.226Z,10.49
2022-10-10T06:08:10.647Z,10.52
2022-10-10T06:09:02.276Z,10.48
2022-10-10T06:10:02.275Z,10.43
2022-10-10T06:11:02.033Z,10.43
2022-10-10T06:12:02.023Z,10.43
2022-10-10T06:13:02.062Z,10.45
2022-10-10T06:14:02.121Z,10.45
2022-10-10T06:15:02.188Z,10.48
2022-10-10T06:16:03.464Z,10.49
2022-10-10T06:17:02.222Z,10.62
2022-10-10T06:18:02.402Z,10.67
2022-10-10T06:19:02.372Z,10.65
2022-10-10T06:20:02.306Z,10.62
2022-10-10T06:21:02.422Z,10.60
2022-10-10T06:22:02.014Z,10.62
2022-10-10T06:23:02.452Z,10.62
2022-10-10T06:24:02.051Z,10.64
2022-10-10T06:25:02.181Z,10.65
2022-10-10T06:26:01.943Z,10.68
2022-10-10T06:27:02.500Z,10.68
2022-10-10T06:28:02.334Z,10.72
2022-10-10T06:29:02.080Z,10.76
2022-10-10T06:30:01.968Z,10.76
2022-10-10T06:31:01.904Z,10.75
2022-10-10T06:32:02.058Z,10.72
2022-10-10T06:33:02.144Z,10.72
2022-10-10T06:34:02.072Z,10.76
2022-10-10T06:35:01.939Z,10.86
2022-10-10T06:36:02.208Z,10.87
2022-10-10T06:37:01.889Z,10.94
2022-10-10T06:38:01.896Z,11.00
2022-10-10T06:39:02.158Z,11.05
2022-10-10T06:40:02.669Z,11.18
2022-10-10T06:41:03.268Z,11.18
2022-10-10T06:42:01.999Z,11.20
2022-10-10T06:43:02.574Z,11.25
2022-10-10T06:44:02.108Z,11.31
2022-10-10T06:45:01.805Z,11.38
2022-10-10T06:46:02.438Z,11.46
2022-10-10T06:47:01.797Z,11.49
2022-10-10T06:48:01.813Z,11.51
2022-10-10T06:49:01.846Z,11.52
2022-10-10T06:50:01.858Z,11.55
2022-10-10T06:51:01.763Z,11.61
2022-10-10T06:52:01.831Z,11.66
2022-10-10T06:53:01.846Z,11.71
2022-10-10T06:54:01.896Z,11.70
2022-10-10T06:55:01.858Z,11.67
2022-10-10T06:56:01.935Z,11.82
2022-10-10T06:57:01.925Z,11.87
2022-10-10T06:58:01.971Z,11.89
2022-10-10T06:59:01.746Z,11.89
2022-10-10T07:00:01.708Z,11.91
2022-10-10T07:01:01.708Z,11.96
2022-10-10T07:02:01.685Z,12.04
2022-10-10T07:03:01.694Z,12.08
2022-10-10T07:04:01.703Z,12.13
2022-10-10T07:05:01.664Z,12.17
2022-10-10T07:06:01.666Z,12.22
2022-10-10T07:07:01.675Z,12.25
2022-10-10T07:08:01.683Z,12.30
2022-10-10T07:09:01.693Z,12.33
2022-10-10T07:10:01.714Z,12.38
2022-10-10T07:11:01.722Z,12.43
2022-10-10T07:12:01.624Z,12.44
2022-10-10T07:13:01.751Z,12.58
2022-10-10T07:14:01.791Z,12.61
2022-10-10T07:15:01.773Z,12.69
2022-10-10T07:16:01.595Z,12.77
2022-10-10T07:17:01.571Z,12.86
2022-10-10T07:18:01.827Z,12.91
2022-10-10T07:19:01.591Z,12.96
2022-10-10T07:20:01.846Z,13.04
2022-10-10T07:21:01.580Z,13.05
2022-10-10T07:22:01.633Z,13.14
2022-10-10T07:23:01.622Z,13.17
2022-10-10T07:24:01.900Z,13.19
2022-10-10T07:25:01.538Z,13.21
2022-10-10T07:26:01.543Z,13.26
2022-10-10T07:27:07.843Z,13.36
2022-10-10T07:28:01.682Z,13.39
2022-10-10T07:29:01.730Z,13.43
2022-10-10T07:30:01.590Z,13.47
2022-10-10T07:31:01.508Z,13.55
2022-10-10T07:32:01.667Z,13.57
2022-10-10T07:33:01.509Z,13.63
2022-10-10T07:34:02.040Z,13.63
2022-10-10T07:35:01.460Z,13.67
2022-10-10T07:36:01.499Z,13.71
2022-10-10T07:37:02.156Z,13.73
2022-10-10T07:38:01.718Z,13.73
2022-10-10T07:39:01.927Z,13.78
2022-10-10T07:40:02.139Z,13.76
2022-10-10T07:41:01.556Z,13.83
2022-10-10T07:42:01.847Z,13.96
2022-10-10T07:43:01.754Z,13.97
2022-10-10T07:44:02.168Z,14.03
2022-10-10T07:45:01.395Z,14.05
2022-10-10T07:47:01.586Z,14.13
2022-10-10T07:48:01.366Z,14.21
2022-10-10T07:49:01.418Z,14.21
2022-10-10T07:50:01.602Z,14.26
2022-10-10T07:51:01.612Z,14.27
2022-10-10T07:52:01.847Z,14.30
2022-10-10T07:53:01.827Z,14.36
2022-10-10T07:54:01.417Z,14.40
2022-10-10T07:55:01.837Z,14.41
2022-10-10T07:56:01.846Z,14.49
2022-10-10T07:57:01.636Z,14.56
2022-10-10T07:58:01.675Z,14.61
2022-10-10T07:59:01.296Z,14.59
2022-10-10T08:00:01.296Z,14.61
2022-10-10T08:01:01.284Z,14.69
2022-10-10T08:02:01.557Z,14.73
2022-10-10T08:03:01.480Z,14.78
2022-10-10T08:04:01.483Z,14.83
2022-10-10T08:05:01.504Z,14.90
2022-10-10T08:06:01.515Z,14.95
2022-10-10T08:07:01.252Z,15.01
2022-10-10T08:08:01.714Z,15.03
2022-10-10T08:09:01.739Z,15.12
2022-10-10T08:10:01.737Z,15.08
2022-10-10T08:11:01.322Z,15.14
2022-10-10T08:12:01.224Z,15.23
2022-10-10T08:13:01.822Z,15.26
2022-10-10T08:14:01.696Z,15.32
2022-10-10T08:15:01.981Z,15.38
2022-10-10T08:16:01.773Z,15.36
2022-10-10T08:17:01.186Z,15.48
2022-10-10T08:18:01.362Z,15.51
2022-10-10T08:19:01.622Z,15.54
2022-10-10T08:20:01.372Z,15.63
2022-10-10T08:21:01.794Z,15.69
2022-10-10T08:22:01.750Z,15.70
2022-10-10T08:23:02.015Z,15.76
2022-10-10T08:24:01.342Z,15.77
2022-10-10T08:25:01.243Z,15.72
2022-10-10T08:26:01.972Z,15.76
2022-10-10T08:27:01.636Z,15.77
2022-10-10T08:28:01.421Z,15.78
2022-10-10T08:29:01.081Z,15.84
2022-10-10T08:30:01.097Z,15.85
2022-10-10T08:31:04.226Z,15.90
2022-10-10T08:32:01.071Z,15.91
2022-10-10T08:33:01.090Z,15.96
2022-10-10T08:34:01.102Z,16.02
2022-10-10T08:35:01.102Z,16.02
2022-10-10T08:36:01.080Z,16.03
2022-10-10T08:37:01.117Z,16.00
2022-10-10T08:38:01.040Z,16.09
2022-10-10T08:39:01.111Z,16.05
2022-10-10T08:40:01.198Z,16.10
2022-10-10T08:41:01.199Z,16.17
2022-10-10T08:42:01.017Z,16.29
2022-10-10T08:43:01.047Z,16.33
2022-10-10T08:44:00.981Z,16.37
2022-10-10T08:45:00.989Z,16.37
2022-10-10T08:46:00.970Z,16.39
2022-10-10T08:47:00.982Z,16.32
2022-10-10T08:48:00.989Z,16.34
2022-10-10T08:49:00.960Z,16.37
2022-10-10T08:50:00.970Z,16.39
2022-10-10T08:51:01.000Z,16.43
2022-10-10T08:52:00.980Z,16.49
2022-10-10T08:53:00.921Z,16.55
2022-10-10T08:54:01.196Z,16.54
2022-10-10T08:55:01.092Z,16.61
2022-10-10T08:56:01.209Z,16.64
2022-10-10T08:57:00.890Z,16.74
2022-10-10T08:58:01.050Z,16.74
2022-10-10T08:59:01.228Z,16.84
2022-10-10T09:00:00.891Z,16.90
2022-10-10T09:01:01.284Z,16.91
2022-10-10T09:02:19.403Z,16.94
2022-10-10T09:03:01.109Z,16.99
2022-10-10T09:04:01.258Z,17.12
2022-10-10T09:05:00.878Z,17.19
2022-10-10T09:06:00.829Z,17.20
2022-10-10T09:07:00.818Z,17.06
2022-10-10T09:08:01.278Z,17.02
2022-10-10T09:09:01.094Z,16.98
2022-10-10T09:10:01.018Z,16.99
2022-10-10T09:11:01.098Z,17.06
2022-10-10T09:12:00.946Z,17.10
2022-10-10T09:13:01.008Z,17.09
2022-10-10T09:14:00.771Z,17.13
2022-10-10T09:15:02.649Z,17.16
2022-10-10T09:16:00.926Z,17.16
2022-10-10T09:17:00.756Z,17.09
2022-10-10T09:18:00.937Z,17.07
2022-10-10T09:19:00.744Z,17.12
2022-10-10T09:20:00.998Z,17.14
2022-10-10T09:21:00.984Z,17.17
2022-10-10T09:22:01.157Z,17.19
2022-10-10T09:23:00.818Z,17.16
2022-10-10T09:24:00.827Z,17.16
2022-10-10T09:25:01.236Z,17.16
2022-10-10T09:26:01.290Z,17.28
2022-10-10T09:27:01.405Z,17.34
2022-10-10T09:28:00.679Z,17.37
2022-10-10T09:29:00.805Z,17.41
2022-10-10T09:30:01.216Z,17.43
2022-10-10T09:31:01.587Z,17.54
2022-10-10T09:32:01.235Z,17.45
2022-10-10T09:33:01.432Z,17.38
2022-10-10T09:34:00.645Z,17.31
2022-10-10T09:35:01.504Z,17.30
2022-10-10T09:36:00.794Z,17.46
2022-10-10T09:37:00.663Z,17.50
2022-10-10T09:38:01.325Z,17.52
2022-10-10T09:39:00.628Z,17.59
2022-10-10T09:40:00.681Z,17.62
2022-10-10T09:41:00.871Z,17.69
2022-10-10T09:42:00.744Z,17.75
2022-10-10T09:43:00.607Z,17.69
2022-10-10T09:44:00.907Z,17.66
2022-10-10T09:45:00.915Z,17.73
2022-10-10T09:46:00.926Z,17.72
2022-10-10T09:47:00.565Z,17.75
2022-10-10T09:48:00.985Z,17.78
2022-10-10T09:49:00.584Z,17.90
2022-10-10T09:50:00.580Z,17.86
2022-10-10T09:51:01.005Z,17.90
2022-10-10T09:52:00.602Z,17.90
2022-10-10T09:53:00.583Z,17.97
2022-10-10T09:54:00.553Z,18.02
2022-10-10T09:55:00.664Z,17.96
2022-10-10T09:56:00.846Z,18.02
2022-10-10T09:57:00.496Z,18.08
2022-10-10T09:58:00.603Z,18.12
2022-10-10T09:59:00.864Z,18.09
2022-10-10T10:00:03.857Z,18.13
2022-10-10T10:01:01.491Z,18.13
2022-10-10T10:02:00.643Z,18.06
2022-10-10T10:03:00.432Z,18.05
2022-10-10T10:04:11.355Z,18.09
2022-10-10T10:05:00.434Z,18.12
2022-10-10T10:06:00.455Z,18.17
2022-10-10T10:07:00.431Z,18.23
2022-10-10T10:08:00.441Z,18.20
2022-10-10T10:09:00.461Z,18.26
2022-10-10T10:10:00.463Z,18.28
2022-10-10T10:11:01.066Z,18.20
2022-10-10T10:12:00.474Z,18.20
2022-10-10T10:13:00.472Z,18.18
2022-10-10T10:14:00.482Z,18.27
2022-10-10T10:15:00.493Z,18.33
2022-10-10T10:16:00.422Z,18.46
2022-10-10T10:17:00.370Z,18.57
2022-10-10T10:18:00.581Z,18.71
2022-10-10T10:19:00.562Z,19.01
2022-10-10T10:20:00.427Z,19.09
2022-10-10T10:21:01.062Z,19.22
2022-10-10T10:22:00.455Z,19.20
2022-10-10T10:23:00.619Z,19.09
2022-10-10T10:24:00.621Z,18.89
2022-10-10T10:25:00.502Z,19.04
2022-10-10T10:26:00.871Z,19.27
2022-10-10T10:27:00.360Z,19.39
2022-10-10T10:28:00.367Z,19.52
2022-10-10T10:29:00.278Z,19.75
2022-10-10T10:30:00.320Z,19.67
2022-10-10T10:31:00.322Z,19.70
2022-10-10T10:32:00.309Z,19.78
2022-10-10T10:33:00.460Z,20.04
2022-10-10T10:34:00.220Z,20.17
2022-10-10T10:35:00.290Z,20.39
2022-10-10T10:36:00.863Z,20.53
2022-10-10T10:37:00.239Z,20.44
2022-10-10T10:38:00.269Z,20.34
2022-10-10T10:39:00.260Z,20.26
2022-10-10T10:40:00.178Z,20.32
2022-10-10T10:41:00.208Z,20.42
2022-10-10T10:42:00.434Z,20.53
2022-10-10T10:43:00.175Z,20.70
2022-10-10T10:44:00.523Z,20.73
2022-10-10T10:45:00.169Z,20.50
2022-10-10T10:46:00.521Z,20.34
2022-10-10T10:47:00.129Z,20.12
2022-10-10T10:48:00.138Z,20.08
2022-10-10T10:49:00.121Z,20.14
2022-10-10T10:50:00.789Z,20.37
2022-10-10T10:51:01.136Z,20.63
2022-10-10T10:52:00.428Z,20.75
2022-10-10T10:53:00.678Z,21.00
2022-10-10T10:54:00.748Z,21.07
2022-10-10T10:55:00.994Z,21.04
2022-10-10T10:56:01.374Z,21.01
2022-10-10T10:57:06.286Z,20.93
2022-10-10T10:58:37.252Z,21.01
2022-10-10T11:00:20.522Z,20.74
2022-10-10T11:01:28.617Z,20.58
2022-10-10T11:02:01.132Z,20.61
2022-10-10T11:03:15.020Z,20.67
2022-10-10T11:05:18.899Z,20.77
2022-10-10T11:05:24.401Z,20.68
2022-10-10T11:06:00.124Z,20.60
2022-10-10T11:07:17.970Z,20.92
2022-10-10T11:08:00.018Z,20.90
2022-10-10T11:08:59.977Z,21.18
2022-10-10T11:09:59.965Z,21.10
2022-10-10T11:11:00.238Z,20.92
2022-10-10T11:12:04.282Z,20.88
2022-10-10T11:12:59.957Z,20.82
2022-10-10T11:13:59.937Z,20.98
2022-10-10T11:14:59.948Z,21.01
2022-10-10T11:16:09.956Z,21.07
2022-10-10T11:16:59.925Z,20.98
2022-10-10T11:17:59.977Z,21.00
2022-10-10T11:18:59.906Z,20.95
2022-10-10T11:19:59.897Z,21.07
2022-10-10T11:21:00.274Z,20.97
2022-10-10T11:22:00.036Z,20.95
2022-10-10T11:23:00.037Z,21.00
2022-10-10T11:24:00.058Z,21.04
2022-10-10T11:24:59.865Z,20.86
2022-10-10T11:25:59.878Z,20.65
2022-10-10T11:26:59.848Z,20.67
2022-10-10T11:28:00.110Z,20.64
2022-10-10T11:28:59.879Z,20.36
2022-10-10T11:30:00.142Z,20.23
2022-10-10T11:30:59.986Z,20.25
2022-10-10T11:31:59.825Z,20.05
2022-10-10T11:32:59.810Z,19.99
2022-10-10T11:33:59.825Z,19.96
2022-10-10T11:34:59.901Z,19.92
2022-10-10T11:36:00.107Z,19.74
2022-10-10T11:36:59.787Z,19.71
2022-10-10T11:38:00.005Z,19.75
2022-10-10T11:39:00.135Z,19.86
2022-10-10T11:40:00.130Z,19.77
2022-10-10T11:40:59.817Z,19.78
2022-10-10T11:41:59.941Z,19.84
2022-10-10T11:42:59.737Z,19.92
2022-10-10T11:43:59.736Z,19.94
2022-10-10T11:44:59.731Z,20.05
2022-10-10T11:46:03.008Z,20.02
2022-10-10T11:46:59.836Z,19.82
2022-10-10T11:47:59.891Z,19.63
2022-10-10T11:48:59.974Z,19.62
2022-10-10T11:50:00.105Z,19.64
2022-10-10T11:51:00.086Z,19.63
2022-10-10T11:52:14.953Z,19.60
2022-10-10T11:52:59.687Z,19.49
2022-10-10T11:53:59.806Z,19.44
2022-10-10T11:54:59.664Z,19.39
2022-10-10T11:55:59.954Z,19.35
2022-10-10T11:56:59.643Z,19.39
2022-10-10T11:57:59.635Z,19.52
2022-10-10T11:58:59.626Z,19.64
2022-10-10T11:59:59.655Z,19.64
2022-10-10T12:00:59.634Z,19.63
2022-10-10T12:01:59.622Z,19.60
2022-10-10T12:02:59.594Z,19.52
2022-10-10T12:03:59.874Z,19.45
2022-10-10T12:05:00.101Z,19.38
2022-10-10T12:06:00.223Z,19.38
2022-10-10T12:06:59.575Z,19.37
2022-10-10T12:07:59.575Z,19.42
2022-10-10T12:08:59.555Z,19.45
2022-10-10T12:09:59.556Z,19.50
2022-10-10T12:10:59.565Z,19.56
2022-10-10T12:11:59.545Z,19.62
2022-10-10T12:12:59.528Z,19.64
2022-10-10T12:13:59.538Z,19.71
2022-10-10T12:14:59.540Z,19.79
2022-10-10T12:15:59.616Z,19.81
2022-10-10T12:17:00.009Z,19.82
2022-10-10T12:17:59.504Z,19.81
2022-10-10T12:19:00.350Z,19.86
2022-10-10T12:19:59.795Z,19.90
2022-10-10T12:20:59.475Z,19.94
2022-10-10T12:21:59.484Z,19.97
2022-10-10T12:22:59.457Z,19.90
2022-10-10T12:23:59.454Z,19.81
2022-10-10T12:24:59.454Z,19.77
2022-10-10T12:26:00.020Z,19.86
2022-10-10T12:26:59.718Z,19.96
2022-10-10T12:27:59.443Z,20.09
2022-10-10T12:28:59.413Z,20.11
2022-10-10T12:29:59.415Z,20.09
2022-10-10T12:30:59.708Z,20.02
2022-10-10T12:31:59.433Z,19.94
2022-10-10T12:32:59.391Z,19.89
2022-10-10T12:33:59.390Z,19.77
2022-10-10T12:34:59.383Z,19.70
2022-10-10T12:35:59.627Z,19.75
2022-10-10T12:37:01.178Z,19.67
2022-10-10T12:37:59.375Z,19.60
2022-10-10T12:39:00.786Z,19.59
2022-10-10T12:39:59.350Z,19.64
2022-10-10T12:40:59.584Z,19.67
2022-10-10T12:41:59.364Z,19.67
2022-10-10T12:42:59.320Z,19.64
2022-10-10T12:43:59.323Z,19.70
2022-10-10T12:44:59.315Z,19.64
2022-10-10T12:45:59.314Z,19.72
2022-10-10T12:47:02.393Z,19.68
2022-10-10T12:48:05.527Z,19.68
2022-10-10T12:48:59.282Z,19.67
2022-10-10T12:49:59.281Z,19.74
2022-10-10T12:50:59.719Z,19.77
2022-10-10T12:51:59.317Z,19.86
2022-10-10T12:52:59.280Z,19.92
2022-10-10T12:53:59.252Z,19.89
2022-10-10T12:55:01.266Z,19.92
2022-10-10T12:55:59.252Z,19.99
2022-10-10T12:56:59.283Z,19.96
2022-10-10T12:57:59.242Z,19.90
2022-10-10T12:58:59.213Z,19.79
2022-10-10T13:00:02.079Z,19.81
2022-10-10T13:00:59.696Z,19.79
2022-10-10T13:01:59.266Z,19.82
2022-10-10T13:02:59.220Z,19.78
2022-10-10T13:03:59.181Z,19.82